sensor_id;sensor_type;location;lat;lon;timestamp;P1;durP1;ratioP1;P2;durP2;ratioP2
73428;SDS011;61643;49.564;17.412;2023-01-31T00:00:21;2.65;;;1.60;;
73428;SDS011;61643;49.564;17.412;2023-01-31T00:02:47;7.55;;;1.50;;
73428;SDS011;61643;49.564;17.412;2023-01-31T00:05:12;6.67;;;1.63;;
73428;SDS011;61643;49.564;17.412;2023-01-31T00:07:37;4.72;;;1.50;;
73428;SDS011;61643;49.564;17.412;2023-01-31T00:10:03;3.93;;;1.20;;
73428;SDS011;61643;49.564;17.412;2023-01-31T00:12:28;4.05;;;1.58;;
73428;SDS011;61643;49.564;17.412;2023-01-31T00:14:54;2.53;;;1.50;;
73428;SDS011;61643;49.564;17.412;2023-01-31T00:17:19;2.35;;;1.45;;
73428;SDS011;61643;49.564;17.412;2023-01-31T00:19:44;5.47;;;1.57;;
73428;SDS011;61643;49.564;17.412;2023-01-31T00:22:10;2.77;;;1.03;;
73428;SDS011;61643;49.564;17.412;2023-01-31T00:24:35;3.63;;;1.00;;
73428;SDS011;61643;49.564;17.412;2023-01-31T00:27:00;4.00;;;1.27;;
73428;SDS011;61643;49.564;17.412;2023-01-31T00:29:26;3.00;;;1.10;;
73428;SDS011;61643;49.564;17.412;2023-01-31T00:31:51;2.80;;;1.00;;
73428;SDS011;61643;49.564;17.412;2023-01-31T00:34:16;4.97;;;1.27;;
73428;SDS011;61643;49.564;17.412;2023-01-31T00:36:42;4.05;;;1.23;;
73428;SDS011;61643;49.564;17.412;2023-01-31T00:39:08;4.40;;;1.17;;
73428;SDS011;61643;49.564;17.412;2023-01-31T00:41:35;3.60;;;1.02;;
73428;SDS011;61643;49.564;17.412;2023-01-31T00:44:02;2.40;;;1.08;;
73428;SDS011;61643;49.564;17.412;2023-01-31T00:46:28;4.85;;;1.23;;
73428;SDS011;61643;49.564;17.412;2023-01-31T00:48:54;4.07;;;1.37;;
73428;SDS011;61643;49.564;17.412;2023-01-31T00:51:20;4.10;;;0.90;;
73428;SDS011;61643;49.564;17.412;2023-01-31T00:53:47;4.10;;;1.20;;
73428;SDS011;61643;49.564;17.412;2023-01-31T00:56:14;6.40;;;1.25;;
73428;SDS011;61643;49.564;17.412;2023-01-31T00:58:46;4.43;;;1.35;;
73428;SDS011;61643;49.564;17.412;2023-01-31T01:01:16;1.77;;;1.27;;
73428;SDS011;61643;49.564;17.412;2023-01-31T01:03:45;4.13;;;1.10;;
73428;SDS011;61643;49.564;17.412;2023-01-31T01:06:10;2.50;;;1.33;;
73428;SDS011;61643;49.564;17.412;2023-01-31T01:08:37;3.42;;;1.25;;
73428;SDS011;61643;49.564;17.412;2023-01-31T01:11:14;5.55;;;1.42;;
73428;SDS011;61643;49.564;17.412;2023-01-31T01:13:41;2.85;;;1.20;;
73428;SDS011;61643;49.564;17.412;2023-01-31T01:16:08;6.50;;;1.20;;
73428;SDS011;61643;49.564;17.412;2023-01-31T01:18:35;4.70;;;1.25;;
73428;SDS011;61643;49.564;17.412;2023-01-31T01:21:05;2.05;;;1.23;;
73428;SDS011;61643;49.564;17.412;2023-01-31T01:23:32;2.72;;;1.10;;
73428;SDS011;61643;49.564;17.412;2023-01-31T01:25:57;4.20;;;1.30;;
73428;SDS011;61643;49.564;17.412;2023-01-31T01:28:23;5.40;;;1.37;;
73428;SDS011;61643;49.564;17.412;2023-01-31T01:30:48;4.50;;;1.30;;
73428;SDS011;61643;49.564;17.412;2023-01-31T01:33:13;3.90;;;1.37;;
73428;SDS011;61643;49.564;17.412;2023-01-31T01:35:39;5.90;;;1.40;;
73428;SDS011;61643;49.564;17.412;2023-01-31T01:38:04;6.30;;;1.33;;
73428;SDS011;61643;49.564;17.412;2023-01-31T01:40:36;7.73;;;1.53;;
73428;SDS011;61643;49.564;17.412;2023-01-31T01:43:02;11.30;;;1.60;;
73428;SDS011;61643;49.564;17.412;2023-01-31T01:45:28;4.03;;;1.40;;
73428;SDS011;61643;49.564;17.412;2023-01-31T01:47:55;3.22;;;1.20;;
73428;SDS011;61643;49.564;17.412;2023-01-31T01:50:41;8.35;;;1.50;;
73428;SDS011;61643;49.564;17.412;2023-01-31T01:53:14;6.72;;;1.30;;
73428;SDS011;61643;49.564;17.412;2023-01-31T01:55:45;10.23;;;1.33;;
73428;SDS011;61643;49.564;17.412;2023-01-31T01:58:21;5.32;;;1.38;;
73428;SDS011;61643;49.564;17.412;2023-01-31T02:00:50;4.20;;;1.42;;
73428;SDS011;61643;49.564;17.412;2023-01-31T02:03:17;3.97;;;1.20;;
73428;SDS011;61643;49.564;17.412;2023-01-31T02:05:47;3.70;;;1.58;;
73428;SDS011;61643;49.564;17.412;2023-01-31T02:08:18;4.13;;;1.17;;
73428;SDS011;61643;49.564;17.412;2023-01-31T02:13:21;11.05;;;1.60;;
73428;SDS011;61643;49.564;17.412;2023-01-31T02:15:47;9.40;;;1.38;;
73428;SDS011;61643;49.564;17.412;2023-01-31T02:18:13;6.93;;;1.25;;
73428;SDS011;61643;49.564;17.412;2023-01-31T02:38:06;0.95;;;0.57;;
73428;SDS011;61643;49.564;17.412;2023-01-31T02:48:33;1.92;;;0.57;;
73428;SDS011;61643;49.564;17.412;2023-01-31T02:51:12;1.38;;;0.57;;
73428;SDS011;61643;49.564;17.412;2023-01-31T02:56:32;0.80;;;0.50;;
73428;SDS011;61643;49.564;17.412;2023-01-31T02:59:03;0.70;;;0.50;;
73428;SDS011;61643;49.564;17.412;2023-01-31T03:01:33;0.80;;;0.40;;
73428;SDS011;61643;49.564;17.412;2023-01-31T03:04:03;1.58;;;0.57;;
73428;SDS011;61643;49.564;17.412;2023-01-31T03:14:37;1.02;;;0.50;;
73428;SDS011;61643;49.564;17.412;2023-01-31T03:20:21;1.60;;;0.55;;
73428;SDS011;61643;49.564;17.412;2023-01-31T03:22:59;2.22;;;0.50;;
73428;SDS011;61643;49.564;17.412;2023-01-31T03:25:28;3.00;;;0.80;;
73428;SDS011;61643;49.564;17.412;2023-01-31T03:27:57;5.05;;;0.68;;
73428;SDS011;61643;49.564;17.412;2023-01-31T03:30:30;1.95;;;0.70;;
73428;SDS011;61643;49.564;17.412;2023-01-31T03:33:05;3.42;;;0.98;;
73428;SDS011;61643;49.564;17.412;2023-01-31T03:35:37;3.53;;;0.95;;
73428;SDS011;61643;49.564;17.412;2023-01-31T03:38:24;2.58;;;0.80;;
73428;SDS011;61643;49.564;17.412;2023-01-31T03:41:04;4.22;;;0.88;;
73428;SDS011;61643;49.564;17.412;2023-01-31T03:43:55;4.88;;;1.00;;
73428;SDS011;61643;49.564;17.412;2023-01-31T03:46:33;4.60;;;1.10;;
73428;SDS011;61643;49.564;17.412;2023-01-31T03:49:05;3.95;;;0.90;;
73428;SDS011;61643;49.564;17.412;2023-01-31T03:51:35;1.67;;;0.70;;
73428;SDS011;61643;49.564;17.412;2023-01-31T03:54:07;7.30;;;1.02;;
73428;SDS011;61643;49.564;17.412;2023-01-31T03:56:44;2.20;;;0.82;;
73428;SDS011;61643;49.564;17.412;2023-01-31T03:59:16;3.85;;;0.88;;
73428;SDS011;61643;49.564;17.412;2023-01-31T04:01:47;3.72;;;0.63;;
73428;SDS011;61643;49.564;17.412;2023-01-31T04:06:45;3.60;;;0.80;;
73428;SDS011;61643;49.564;17.412;2023-01-31T04:09:10;1.77;;;0.95;;
73428;SDS011;61643;49.564;17.412;2023-01-31T04:11:37;3.40;;;0.73;;
73428;SDS011;61643;49.564;17.412;2023-01-31T04:14:04;3.85;;;0.70;;
73428;SDS011;61643;49.564;17.412;2023-01-31T04:16:30;7.18;;;1.10;;
73428;SDS011;61643;49.564;17.412;2023-01-31T04:18:55;3.63;;;0.83;;
73428;SDS011;61643;49.564;17.412;2023-01-31T04:21:21;4.03;;;1.00;;
73428;SDS011;61643;49.564;17.412;2023-01-31T04:23:47;2.40;;;0.80;;
73428;SDS011;61643;49.564;17.412;2023-01-31T04:26:12;4.80;;;1.03;;
73428;SDS011;61643;49.564;17.412;2023-01-31T04:28:38;3.55;;;1.25;;
73428;SDS011;61643;49.564;17.412;2023-01-31T04:31:04;5.40;;;1.48;;
73428;SDS011;61643;49.564;17.412;2023-01-31T04:33:29;7.60;;;2.53;;
73428;SDS011;61643;49.564;17.412;2023-01-31T04:35:55;3.17;;;1.50;;
73428;SDS011;61643;49.564;17.412;2023-01-31T04:38:20;4.60;;;1.40;;
73428;SDS011;61643;49.564;17.412;2023-01-31T04:40:46;2.33;;;1.17;;
73428;SDS011;61643;49.564;17.412;2023-01-31T04:43:11;6.15;;;1.63;;
73428;SDS011;61643;49.564;17.412;2023-01-31T04:45:37;1.88;;;1.08;;
73428;SDS011;61643;49.564;17.412;2023-01-31T04:48:02;8.50;;;1.30;;
73428;SDS011;61643;49.564;17.412;2023-01-31T04:50:28;4.18;;;1.10;;
73428;SDS011;61643;49.564;17.412;2023-01-31T04:52:53;5.72;;;1.10;;
73428;SDS011;61643;49.564;17.412;2023-01-31T04:55:20;5.50;;;1.50;;
73428;SDS011;61643;49.564;17.412;2023-01-31T04:57:45;3.95;;;1.13;;
73428;SDS011;61643;49.564;17.412;2023-01-31T05:00:11;3.70;;;1.58;;
73428;SDS011;61643;49.564;17.412;2023-01-31T05:02:36;7.30;;;1.60;;
73428;SDS011;61643;49.564;17.412;2023-01-31T05:05:03;10.55;;;1.33;;
73428;SDS011;61643;49.564;17.412;2023-01-31T05:07:32;4.72;;;1.40;;
73428;SDS011;61643;49.564;17.412;2023-01-31T05:09:57;5.93;;;1.30;;
73428;SDS011;61643;49.564;17.412;2023-01-31T05:12:22;4.27;;;1.23;;
73428;SDS011;61643;49.564;17.412;2023-01-31T05:14:48;3.93;;;1.37;;
73428;SDS011;61643;49.564;17.412;2023-01-31T05:17:13;5.03;;;1.40;;
73428;SDS011;61643;49.564;17.412;2023-01-31T05:19:38;3.50;;;1.50;;
73428;SDS011;61643;49.564;17.412;2023-01-31T05:22:06;9.45;;;2.00;;
73428;SDS011;61643;49.564;17.412;2023-01-31T05:24:32;3.13;;;1.60;;
73428;SDS011;61643;49.564;17.412;2023-01-31T05:26:58;5.15;;;1.73;;
73428;SDS011;61643;49.564;17.412;2023-01-31T05:29:29;5.93;;;1.60;;
73428;SDS011;61643;49.564;17.412;2023-01-31T05:31:56;4.72;;;1.20;;
73428;SDS011;61643;49.564;17.412;2023-01-31T05:34:23;4.25;;;1.30;;
73428;SDS011;61643;49.564;17.412;2023-01-31T05:36:52;4.65;;;1.00;;
73428;SDS011;61643;49.564;17.412;2023-01-31T05:39:17;2.72;;;1.23;;
73428;SDS011;61643;49.564;17.412;2023-01-31T05:41:43;2.67;;;0.85;;
73428;SDS011;61643;49.564;17.412;2023-01-31T05:44:08;1.43;;;0.73;;
73428;SDS011;61643;49.564;17.412;2023-01-31T05:46:34;1.77;;;0.70;;
73428;SDS011;61643;49.564;17.412;2023-01-31T05:49:00;3.90;;;0.70;;
73428;SDS011;61643;49.564;17.412;2023-01-31T05:51:25;3.03;;;0.87;;
73428;SDS011;61643;49.564;17.412;2023-01-31T05:53:51;3.20;;;1.00;;
73428;SDS011;61643;49.564;17.412;2023-01-31T05:56:16;3.27;;;1.20;;
73428;SDS011;61643;49.564;17.412;2023-01-31T05:58:41;4.33;;;0.87;;
73428;SDS011;61643;49.564;17.412;2023-01-31T06:01:07;4.05;;;0.85;;
73428;SDS011;61643;49.564;17.412;2023-01-31T06:03:33;3.78;;;0.95;;
73428;SDS011;61643;49.564;17.412;2023-01-31T06:05:59;2.17;;;1.00;;
73428;SDS011;61643;49.564;17.412;2023-01-31T06:08:24;4.73;;;1.03;;
73428;SDS011;61643;49.564;17.412;2023-01-31T06:10:49;2.78;;;1.20;;
73428;SDS011;61643;49.564;17.412;2023-01-31T06:13:15;3.73;;;1.27;;
73428;SDS011;61643;49.564;17.412;2023-01-31T06:15:43;5.40;;;1.70;;
73428;SDS011;61643;49.564;17.412;2023-01-31T06:18:09;3.00;;;1.45;;
73428;SDS011;61643;49.564;17.412;2023-01-31T06:20:35;4.90;;;1.67;;
73428;SDS011;61643;49.564;17.412;2023-01-31T06:23:00;5.27;;;1.53;;
73428;SDS011;61643;49.564;17.412;2023-01-31T06:25:26;5.43;;;1.67;;
73428;SDS011;61643;49.564;17.412;2023-01-31T06:27:51;8.70;;;1.48;;
73428;SDS011;61643;49.564;17.412;2023-01-31T06:30:19;6.05;;;1.70;;
73428;SDS011;61643;49.564;17.412;2023-01-31T06:32:44;7.60;;;1.90;;
73428;SDS011;61643;49.564;17.412;2023-01-31T06:35:10;4.23;;;1.53;;
73428;SDS011;61643;49.564;17.412;2023-01-31T06:37:35;5.83;;;1.77;;
73428;SDS011;61643;49.564;17.412;2023-01-31T06:40:00;5.30;;;1.60;;
73428;SDS011;61643;49.564;17.412;2023-01-31T06:42:26;9.30;;;1.80;;
73428;SDS011;61643;49.564;17.412;2023-01-31T06:44:51;6.40;;;2.17;;
73428;SDS011;61643;49.564;17.412;2023-01-31T06:47:16;5.53;;;1.87;;
73428;SDS011;61643;49.564;17.412;2023-01-31T06:49:42;6.43;;;1.90;;
73428;SDS011;61643;49.564;17.412;2023-01-31T06:52:07;4.50;;;2.00;;
73428;SDS011;61643;49.564;17.412;2023-01-31T06:54:32;2.63;;;1.70;;
73428;SDS011;61643;49.564;17.412;2023-01-31T06:56:58;6.97;;;2.20;;
73428;SDS011;61643;49.564;17.412;2023-01-31T06:59:23;10.67;;;2.77;;
73428;SDS011;61643;49.564;17.412;2023-01-31T07:01:49;8.48;;;3.00;;
73428;SDS011;61643;49.564;17.412;2023-01-31T07:04:14;10.13;;;3.00;;
73428;SDS011;61643;49.564;17.412;2023-01-31T07:06:39;4.30;;;1.87;;
73428;SDS011;61643;49.564;17.412;2023-01-31T07:09:05;5.53;;;1.88;;
73428;SDS011;61643;49.564;17.412;2023-01-31T07:11:31;7.30;;;2.08;;
73428;SDS011;61643;49.564;17.412;2023-01-31T07:13:57;7.75;;;1.77;;
73428;SDS011;61643;49.564;17.412;2023-01-31T07:16:22;4.57;;;1.53;;
73428;SDS011;61643;49.564;17.412;2023-01-31T07:18:52;6.25;;;1.60;;
73428;SDS011;61643;49.564;17.412;2023-01-31T07:21:19;6.10;;;2.15;;
73428;SDS011;61643;49.564;17.412;2023-01-31T07:23:45;5.47;;;1.48;;
73428;SDS011;61643;49.564;17.412;2023-01-31T07:26:11;5.63;;;1.52;;
73428;SDS011;61643;49.564;17.412;2023-01-31T07:28:36;4.73;;;1.57;;
73428;SDS011;61643;49.564;17.412;2023-01-31T07:31:05;5.70;;;1.63;;
73428;SDS011;61643;49.564;17.412;2023-01-31T07:33:34;4.82;;;1.65;;
73428;SDS011;61643;49.564;17.412;2023-01-31T07:36:00;4.13;;;1.33;;
73428;SDS011;61643;49.564;17.412;2023-01-31T07:38:28;6.90;;;1.50;;
73428;SDS011;61643;49.564;17.412;2023-01-31T07:40:56;5.15;;;1.42;;
73428;SDS011;61643;49.564;17.412;2023-01-31T07:43:22;8.10;;;1.80;;
73428;SDS011;61643;49.564;17.412;2023-01-31T07:45:48;5.88;;;1.75;;
73428;SDS011;61643;49.564;17.412;2023-01-31T07:48:13;2.17;;;1.10;;
73428;SDS011;61643;49.564;17.412;2023-01-31T07:50:39;6.27;;;1.40;;
73428;SDS011;61643;49.564;17.412;2023-01-31T07:53:04;7.03;;;1.50;;
73428;SDS011;61643;49.564;17.412;2023-01-31T07:55:29;4.83;;;1.87;;
73428;SDS011;61643;49.564;17.412;2023-01-31T07:57:55;5.97;;;1.70;;
73428;SDS011;61643;49.564;17.412;2023-01-31T08:00:20;7.23;;;2.33;;
73428;SDS011;61643;49.564;17.412;2023-01-31T08:03:33;7.50;;;2.15;;
73428;SDS011;61643;49.564;17.412;2023-01-31T08:06:08;8.00;;;2.10;;
73428;SDS011;61643;49.564;17.412;2023-01-31T08:08:35;6.47;;;1.75;;
73428;SDS011;61643;49.564;17.412;2023-01-31T08:11:02;4.70;;;1.35;;
73428;SDS011;61643;49.564;17.412;2023-01-31T08:13:30;4.25;;;1.75;;
73428;SDS011;61643;49.564;17.412;2023-01-31T08:15:57;5.28;;;1.30;;
73428;SDS011;61643;49.564;17.412;2023-01-31T08:18:23;4.50;;;1.50;;
73428;SDS011;61643;49.564;17.412;2023-01-31T08:20:49;19.33;;;6.68;;
73428;SDS011;61643;49.564;17.412;2023-01-31T08:23:14;25.80;;;8.97;;
73428;SDS011;61643;49.564;17.412;2023-01-31T08:25:39;6.07;;;2.80;;
73428;SDS011;61643;49.564;17.412;2023-01-31T08:28:05;5.93;;;1.70;;
73428;SDS011;61643;49.564;17.412;2023-01-31T08:30:30;5.37;;;1.73;;
73428;SDS011;61643;49.564;17.412;2023-01-31T08:32:56;6.60;;;2.08;;
73428;SDS011;61643;49.564;17.412;2023-01-31T08:35:21;4.73;;;2.00;;
73428;SDS011;61643;49.564;17.412;2023-01-31T08:37:47;15.60;;;7.43;;
73428;SDS011;61643;49.564;17.412;2023-01-31T08:40:12;6.30;;;2.47;;
73428;SDS011;61643;49.564;17.412;2023-01-31T08:42:38;8.50;;;1.73;;
73428;SDS011;61643;49.564;17.412;2023-01-31T08:45:04;4.10;;;1.73;;
73428;SDS011;61643;49.564;17.412;2023-01-31T08:47:31;8.63;;;3.65;;
73428;SDS011;61643;49.564;17.412;2023-01-31T08:49:57;5.05;;;1.70;;
73428;SDS011;61643;49.564;17.412;2023-01-31T08:52:22;6.00;;;1.70;;
73428;SDS011;61643;49.564;17.412;2023-01-31T08:54:47;6.27;;;1.73;;
73428;SDS011;61643;49.564;17.412;2023-01-31T08:57:13;5.63;;;1.50;;
73428;SDS011;61643;49.564;17.412;2023-01-31T08:59:38;3.67;;;1.40;;
73428;SDS011;61643;49.564;17.412;2023-01-31T09:02:03;5.73;;;1.57;;
73428;SDS011;61643;49.564;17.412;2023-01-31T09:04:29;3.50;;;1.52;;
73428;SDS011;61643;49.564;17.412;2023-01-31T09:06:54;6.20;;;1.23;;
73428;SDS011;61643;49.564;17.412;2023-01-31T09:09:20;3.93;;;1.57;;
73428;SDS011;61643;49.564;17.412;2023-01-31T09:11:45;4.90;;;1.98;;
73428;SDS011;61643;49.564;17.412;2023-01-31T09:14:10;6.93;;;2.07;;
73428;SDS011;61643;49.564;17.412;2023-01-31T09:16:36;1.73;;;1.00;;
73428;SDS011;61643;49.564;17.412;2023-01-31T09:19:02;2.40;;;1.33;;
73428;SDS011;61643;49.564;17.412;2023-01-31T09:21:27;4.10;;;1.70;;
73428;SDS011;61643;49.564;17.412;2023-01-31T09:23:56;7.03;;;1.73;;
73428;SDS011;61643;49.564;17.412;2023-01-31T09:26:26;5.63;;;1.88;;
73428;SDS011;61643;49.564;17.412;2023-01-31T09:28:52;5.70;;;1.35;;
73428;SDS011;61643;49.564;17.412;2023-01-31T09:31:18;4.20;;;1.30;;
73428;SDS011;61643;49.564;17.412;2023-01-31T09:33:45;5.35;;;2.10;;
73428;SDS011;61643;49.564;17.412;2023-01-31T09:36:14;3.00;;;1.80;;
73428;SDS011;61643;49.564;17.412;2023-01-31T09:38:44;7.72;;;1.63;;
73428;SDS011;61643;49.564;17.412;2023-01-31T09:41:56;3.55;;;1.52;;
73428;SDS011;61643;49.564;17.412;2023-01-31T09:44:03;4.13;;;1.48;;
73428;SDS011;61643;49.564;17.412;2023-01-31T09:46:36;2.28;;;1.20;;
73428;SDS011;61643;49.564;17.412;2023-01-31T09:49:07;3.60;;;1.23;;
73428;SDS011;61643;49.564;17.412;2023-01-31T09:51:38;2.70;;;1.30;;
73428;SDS011;61643;49.564;17.412;2023-01-31T09:54:04;3.63;;;1.23;;
73428;SDS011;61643;49.564;17.412;2023-01-31T09:56:39;6.35;;;1.88;;
73428;SDS011;61643;49.564;17.412;2023-01-31T09:59:21;4.53;;;1.30;;
73428;SDS011;61643;49.564;17.412;2023-01-31T10:11:58;5.53;;;1.52;;
73428;SDS011;61643;49.564;17.412;2023-01-31T10:14:45;4.35;;;1.52;;
73428;SDS011;61643;49.564;17.412;2023-01-31T10:17:21;6.32;;;1.92;;
73428;SDS011;61643;49.564;17.412;2023-01-31T10:28:18;4.95;;;2.05;;
73428;SDS011;61643;49.564;17.412;2023-01-31T10:31:02;8.35;;;3.00;;
73428;SDS011;61643;49.564;17.412;2023-01-31T10:33:57;8.13;;;2.58;;
73428;SDS011;61643;49.564;17.412;2023-01-31T10:39:04;7.32;;;2.45;;
73428;SDS011;61643;49.564;17.412;2023-01-31T10:41:34;4.15;;;1.65;;
73428;SDS011;61643;49.564;17.412;2023-01-31T10:44:06;6.93;;;1.70;;
73428;SDS011;61643;49.564;17.412;2023-01-31T10:46:42;3.10;;;1.40;;
73428;SDS011;61643;49.564;17.412;2023-01-31T10:49:07;4.30;;;1.60;;
73428;SDS011;61643;49.564;17.412;2023-01-31T10:51:41;4.82;;;1.80;;
73428;SDS011;61643;49.564;17.412;2023-01-31T10:57:04;3.85;;;1.60;;
73428;SDS011;61643;49.564;17.412;2023-01-31T10:59:34;3.75;;;1.70;;
73428;SDS011;61643;49.564;17.412;2023-01-31T11:02:02;6.60;;;2.83;;
73428;SDS011;61643;49.564;17.412;2023-01-31T11:04:39;3.15;;;1.92;;
73428;SDS011;61643;49.564;17.412;2023-01-31T11:07:06;6.57;;;2.20;;
73428;SDS011;61643;49.564;17.412;2023-01-31T11:09:35;7.43;;;2.10;;
73428;SDS011;61643;49.564;17.412;2023-01-31T11:12:04;4.20;;;2.00;;
73428;SDS011;61643;49.564;17.412;2023-01-31T11:14:30;5.32;;;2.00;;
73428;SDS011;61643;49.564;17.412;2023-01-31T11:16:57;6.72;;;1.90;;
73428;SDS011;61643;49.564;17.412;2023-01-31T11:19:48;5.80;;;1.83;;
73428;SDS011;61643;49.564;17.412;2023-01-31T11:22:27;2.25;;;1.25;;
73428;SDS011;61643;49.564;17.412;2023-01-31T11:24:56;5.68;;;1.80;;
73428;SDS011;61643;49.564;17.412;2023-01-31T11:27:28;2.42;;;1.20;;
73428;SDS011;61643;49.564;17.412;2023-01-31T11:30:01;4.88;;;1.67;;
73428;SDS011;61643;49.564;17.412;2023-01-31T11:32:28;2.92;;;1.60;;
73428;SDS011;61643;49.564;17.412;2023-01-31T11:34:59;3.88;;;2.10;;
73428;SDS011;61643;49.564;17.412;2023-01-31T11:37:25;1.73;;;1.27;;
73428;SDS011;61643;49.564;17.412;2023-01-31T11:39:59;4.40;;;1.85;;
73428;SDS011;61643;49.564;17.412;2023-01-31T11:42:27;3.28;;;1.60;;
73428;SDS011;61643;49.564;17.412;2023-01-31T11:47:18;4.37;;;1.97;;
73428;SDS011;61643;49.564;17.412;2023-01-31T11:49:49;6.45;;;2.75;;
73428;SDS011;61643;49.564;17.412;2023-01-31T11:52:19;5.22;;;2.00;;
73428;SDS011;61643;49.564;17.412;2023-01-31T11:54:50;4.68;;;1.88;;
73428;SDS011;61643;49.564;17.412;2023-01-31T11:57:32;5.35;;;1.60;;
73428;SDS011;61643;49.564;17.412;2023-01-31T12:00:00;3.00;;;1.88;;
73428;SDS011;61643;49.564;17.412;2023-01-31T12:04:59;2.03;;;1.30;;
73428;SDS011;61643;49.564;17.412;2023-01-31T12:07:47;3.67;;;1.20;;
73428;SDS011;61643;49.564;17.412;2023-01-31T12:10:50;2.88;;;1.38;;
73428;SDS011;61643;49.564;17.412;2023-01-31T12:13:16;1.92;;;1.10;;
73428;SDS011;61643;49.564;17.412;2023-01-31T12:18:11;2.72;;;1.60;;
73428;SDS011;61643;49.564;17.412;2023-01-31T12:20:42;3.58;;;1.42;;
73428;SDS011;61643;49.564;17.412;2023-01-31T12:25:55;3.53;;;1.60;;
73428;SDS011;61643;49.564;17.412;2023-01-31T12:31:17;3.35;;;1.38;;
73428;SDS011;61643;49.564;17.412;2023-01-31T12:37:40;3.05;;;1.52;;
73428;SDS011;61643;49.564;17.412;2023-01-31T12:42:25;2.78;;;1.77;;
73428;SDS011;61643;49.564;17.412;2023-01-31T12:58:54;6.10;;;2.45;;
73428;SDS011;61643;49.564;17.412;2023-01-31T13:01:36;3.78;;;2.10;;
73428;SDS011;61643;49.564;17.412;2023-01-31T13:04:14;5.82;;;2.38;;
73428;SDS011;61643;49.564;17.412;2023-01-31T13:06:42;6.57;;;2.65;;
73428;SDS011;61643;49.564;17.412;2023-01-31T13:09:20;4.43;;;1.80;;
73428;SDS011;61643;49.564;17.412;2023-01-31T13:11:54;4.10;;;2.38;;
73428;SDS011;61643;49.564;17.412;2023-01-31T13:14:25;7.72;;;1.98;;
73428;SDS011;61643;49.564;17.412;2023-01-31T13:16:55;7.30;;;2.17;;
73428;SDS011;61643;49.564;17.412;2023-01-31T13:19:38;7.45;;;2.00;;
73428;SDS011;61643;49.564;17.412;2023-01-31T13:22:11;10.88;;;4.35;;
73428;SDS011;61643;49.564;17.412;2023-01-31T13:24:42;12.18;;;3.95;;
73428;SDS011;61643;49.564;17.412;2023-01-31T13:30:04;5.03;;;2.03;;
73428;SDS011;61643;49.564;17.412;2023-01-31T13:32:51;8.57;;;4.07;;
73428;SDS011;61643;49.564;17.412;2023-01-31T13:35:24;4.60;;;2.10;;
73428;SDS011;61643;49.564;17.412;2023-01-31T13:38:01;4.32;;;2.03;;
73428;SDS011;61643;49.564;17.412;2023-01-31T13:40:34;7.00;;;2.00;;
73428;SDS011;61643;49.564;17.412;2023-01-31T13:43:05;7.88;;;2.22;;
73428;SDS011;61643;49.564;17.412;2023-01-31T13:45:39;3.78;;;1.55;;
73428;SDS011;61643;49.564;17.412;2023-01-31T13:48:16;7.18;;;2.30;;
73428;SDS011;61643;49.564;17.412;2023-01-31T13:50:45;11.52;;;2.88;;
73428;SDS011;61643;49.564;17.412;2023-01-31T13:53:18;5.63;;;1.80;;
73428;SDS011;61643;49.564;17.412;2023-01-31T13:55:53;10.02;;;2.40;;
73428;SDS011;61643;49.564;17.412;2023-01-31T14:00:48;6.93;;;2.30;;
73428;SDS011;61643;49.564;17.412;2023-01-31T14:03:23;4.78;;;1.67;;
73428;SDS011;61643;49.564;17.412;2023-01-31T14:05:53;7.43;;;2.40;;
73428;SDS011;61643;49.564;17.412;2023-01-31T14:10:55;5.10;;;1.80;;
73428;SDS011;61643;49.564;17.412;2023-01-31T14:13:46;7.32;;;1.95;;
73428;SDS011;61643;49.564;17.412;2023-01-31T14:16:34;7.30;;;1.90;;
73428;SDS011;61643;49.564;17.412;2023-01-31T14:21:48;13.98;;;4.25;;
73428;SDS011;61643;49.564;17.412;2023-01-31T14:24:19;14.80;;;7.43;;
73428;SDS011;61643;49.564;17.412;2023-01-31T14:27:38;22.33;;;8.98;;
73428;SDS011;61643;49.564;17.412;2023-01-31T14:34:59;9.23;;;4.30;;
73428;SDS011;61643;49.564;17.412;2023-01-31T14:48:10;9.93;;;5.80;;
73428;SDS011;61643;49.564;17.412;2023-01-31T14:50:46;10.43;;;4.03;;
73428;SDS011;61643;49.564;17.412;2023-01-31T14:53:20;9.40;;;2.72;;
73428;SDS011;61643;49.564;17.412;2023-01-31T14:58:33;11.18;;;5.40;;
73428;SDS011;61643;49.564;17.412;2023-01-31T15:01:01;9.27;;;4.75;;
73428;SDS011;61643;49.564;17.412;2023-01-31T15:03:37;10.55;;;4.35;;
73428;SDS011;61643;49.564;17.412;2023-01-31T15:06:13;6.82;;;3.33;;
73428;SDS011;61643;49.564;17.412;2023-01-31T15:08:47;9.68;;;3.72;;
73428;SDS011;61643;49.564;17.412;2023-01-31T15:14:01;10.60;;;5.28;;
73428;SDS011;61643;49.564;17.412;2023-01-31T15:16:44;9.98;;;3.15;;
73428;SDS011;61643;49.564;17.412;2023-01-31T15:19:15;8.40;;;2.00;;
73428;SDS011;61643;49.564;17.412;2023-01-31T15:21:51;4.47;;;1.73;;
73428;SDS011;61643;49.564;17.412;2023-01-31T15:24:30;7.45;;;1.55;;
73428;SDS011;61643;49.564;17.412;2023-01-31T15:26:56;8.38;;;2.20;;
73428;SDS011;61643;49.564;17.412;2023-01-31T15:29:24;7.47;;;3.88;;
73428;SDS011;61643;49.564;17.412;2023-01-31T15:31:54;10.48;;;4.28;;
73428;SDS011;61643;49.564;17.412;2023-01-31T15:34:30;7.20;;;2.85;;
73428;SDS011;61643;49.564;17.412;2023-01-31T15:39:32;4.00;;;1.50;;
73428;SDS011;61643;49.564;17.412;2023-01-31T15:42:22;8.65;;;2.92;;
73428;SDS011;61643;49.564;17.412;2023-01-31T15:50:35;29.30;;;10.32;;
73428;SDS011;61643;49.564;17.412;2023-01-31T15:53:02;11.20;;;4.23;;
73428;SDS011;61643;49.564;17.412;2023-01-31T15:55:29;11.38;;;2.80;;
73428;SDS011;61643;49.564;17.412;2023-01-31T15:57:58;6.25;;;2.20;;
73428;SDS011;61643;49.564;17.412;2023-01-31T16:00:27;6.90;;;1.92;;
73428;SDS011;61643;49.564;17.412;2023-01-31T16:02:55;9.07;;;2.50;;
73428;SDS011;61643;49.564;17.412;2023-01-31T16:05:31;4.63;;;2.08;;
73428;SDS011;61643;49.564;17.412;2023-01-31T16:07:59;9.98;;;2.33;;
73428;SDS011;61643;49.564;17.412;2023-01-31T16:10:26;5.20;;;2.28;;
73428;SDS011;61643;49.564;17.412;2023-01-31T16:12:52;7.10;;;2.58;;
73428;SDS011;61643;49.564;17.412;2023-01-31T16:15:21;6.03;;;2.63;;
73428;SDS011;61643;49.564;17.412;2023-01-31T16:17:49;8.70;;;2.53;;
73428;SDS011;61643;49.564;17.412;2023-01-31T16:25:58;8.13;;;2.95;;
73428;SDS011;61643;49.564;17.412;2023-01-31T16:31:04;5.63;;;2.05;;
73428;SDS011;61643;49.564;17.412;2023-01-31T16:33:32;7.55;;;2.25;;
73428;SDS011;61643;49.564;17.412;2023-01-31T16:36:04;7.28;;;2.15;;
73428;SDS011;61643;49.564;17.412;2023-01-31T16:38:35;5.95;;;1.80;;
73428;SDS011;61643;49.564;17.412;2023-01-31T16:41:04;5.75;;;3.00;;
73428;SDS011;61643;49.564;17.412;2023-01-31T16:43:34;6.85;;;2.25;;
73428;SDS011;61643;49.564;17.412;2023-01-31T16:48:33;6.57;;;2.58;;
73428;SDS011;61643;49.564;17.412;2023-01-31T17:02:00;12.95;;;3.97;;
73428;SDS011;61643;49.564;17.412;2023-01-31T17:04:27;8.75;;;3.70;;
73428;SDS011;61643;49.564;17.412;2023-01-31T17:07:02;7.30;;;3.10;;
73428;SDS011;61643;49.564;17.412;2023-01-31T17:09:30;8.43;;;2.83;;
73428;SDS011;61643;49.564;17.412;2023-01-31T17:11:56;9.40;;;3.50;;
73428;SDS011;61643;49.564;17.412;2023-01-31T17:14:22;15.30;;;5.07;;
73428;SDS011;61643;49.564;17.412;2023-01-31T17:16:51;21.92;;;8.10;;
73428;SDS011;61643;49.564;17.412;2023-01-31T17:19:18;26.65;;;8.77;;
73428;SDS011;61643;49.564;17.412;2023-01-31T17:21:43;12.10;;;4.35;;
73428;SDS011;61643;49.564;17.412;2023-01-31T17:24:13;12.55;;;4.90;;
73428;SDS011;61643;49.564;17.412;2023-01-31T17:26:40;9.88;;;4.22;;
73428;SDS011;61643;49.564;17.412;2023-01-31T17:29:06;11.35;;;4.10;;